GMADDBBB

Guest
Details From GMAD - Agadir AL MASSIRA
To DBBB - CADJEHOUN
Flight Number -
Tags generated
Created
Modified
Stats Distance 1,611 nm / 2,984 km
Max Altitude 35,000 ft / 10,668 m
Waypoints 19
Social Downloads 1
Likes 0
Share VATSIM

Download

Looking for another format? Having issues loading an existing format? Contact us
Advertisement - Login to hide

Notes

Basic altitude profile: - Ascent Rate: 2500ft/min - Ascent Speed: 250kts - Cruise Altitude: 35000ft - Cruise Speed: 420kts - Descent Rate: 1500ft/min - Descent Speed: 250kts Options: - Use NATs: yes - Use PACOTS: yes - Use low airways: yes - Use high airways: yes

Route

GMAD KUVEL UR977G BULIS UR866G OPULU UR866 OG UR983 PAM UA601 TYE DBBB

ID Type Via Altitude Latitude Longitude Leg Dist Tot Dist Heading (true) Name
O GMAD APT - 0 ft / 0 m 30.32262˚ -9.41153˚ - 0 nm - Agadir AL MASSIRA
KUVEL FIX - 27,500 ft / 8,382 m 29.00000˚ -9.26083˚ 79 nm 79 nm 174° / 174° -
BULIS FIX UR977G (AWY-HI) 35,000 ft / 10,668 m 27.66667˚ -9.14167˚ 80 nm 160 nm 175° / 176° -
ULPAK FIX UR866G (AWY-HI) 35,000 ft / 10,668 m 25.16722˚ -7.76917˚ 167 nm 327 nm 154° / 154° -
DELIX FIX UR866G (AWY-HI) 35,000 ft / 10,668 m 23.56722˚ -6.92333˚ 106 nm 434 nm 154° / 154° -
AMSEN FIX UR866G (AWY-HI) 35,000 ft / 10,668 m 22.00000˚ -6.11722˚ 104 nm 538 nm 154° / 155° -
SOLMA FIX UR866G (AWY-HI) 35,000 ft / 10,668 m 19.38417˚ -4.81389˚ 173 nm 711 nm 155° / 155° -
MOLAS FIX UR866G (AWY-HI) 35,000 ft / 10,668 m 18.73028˚ -4.49556˚ 43 nm 754 nm 155° / 155° -
OPULU FIX UR866G (AWY-HI) 35,000 ft / 10,668 m 16.40972˚ -3.38722˚ 153 nm 907 nm 155° / 156° -
SONKO FIX UR866 (AWY-HI) 35,000 ft / 10,668 m 15.08667˚ -2.76833˚ 87 nm 995 nm 156° / 156° -
VOLBU FIX UR866 (AWY-HI) 35,000 ft / 10,668 m 14.40139˚ -2.45139˚ 45 nm 1040 nm 156° / 156° -
NUREX FIX UR866 (AWY-HI) 35,000 ft / 10,668 m 13.15417˚ -1.87972˚ 81 nm 1122 nm 156° / 156° -
OG VOR UR866 (AWY-HI) 35,000 ft / 10,668 m 12.34628˚ -1.51283˚ 53 nm 1175 nm 156° / 156° OUAGADOUGOU VOR-DME
BONGO FIX UR983 (AWY-HI) 35,000 ft / 10,668 m 11.00000˚ -0.89500˚ 88 nm 1263 nm 156° / 156° -
NASIA FIX UR983 (AWY-HI) 35,000 ft / 10,668 m 10.10167˚ -0.43333˚ 60 nm 1324 nm 153° / 153° -
LIPUS FIX UR983 (AWY-HI) 35,000 ft / 10,668 m 9.21806˚ 0.00194˚ 58 nm 1383 nm 154° / 154° -
PAM VOR UR983 (AWY-HI) 31,700 ft / 9,662 m 8.01333˚ 0.56150˚ 79 nm 1462 nm 155° / 155° PAMPA VOR-DME
TYE VOR UA601 (AWY-HI) 23,500 ft / 7,163 m 6.36214˚ 2.39325˚ 147 nm 1610 nm 132° / 132° COTONOU VOR-DME
O DBBB APT - 0 ft / 0 m 6.35723˚ 2.38435˚ 0 nm 1610 nm 241° / 241° CADJEHOUN

Altitude Profile

Advertisement - Login to hide

Weather


0- 5 10 15 20 25 30 35+ Temperature / ° C

Clouds and Precipitation
Forecast for 2017-12-14 06:00 UTC. Updated an hour ago

Ground ~20,000 ft ~40,000 ft Winds

GMAD

Details ICAO GMAD
Name Agadir AL MASSIRA
Region Morocco
Timezone Africa/Casablanca (UTC+0.0)
Stats Elevation 250 ft / 76 m (AMSL)
Location 30.322623° -9.411528°
Runways 1
Magnetic Variation 2.482° W

METAR

GMAD 140230Z 06004KT 7000 NSC 08/07 Q1023 NOSIG

Decode

TAF

TAF GMAD 132300Z 1400/1506 06008KT CAVOK= TAF GMME 132300Z 1400/1506 12005KT CAVOK PROB30 TEMPO 1404/1408 VRB02KT 3000 BR SCT008 BECMG 14117/1419 32008KT 5000 BKN015

Decode

Departure Runways

ID Width Length Bearing (true) Bearing (mag) Surface Threshold Offset Overrun Length
10 148 ft / 45 m 10,509 ft / 3,203 m 91.58° 94.06° Asphalt 0 ft / 0 m 0 ft / 0 m
28 148 ft / 45 m 10,509 ft / 3,203 m 271.60° 274.08° Asphalt 0 ft / 0 m 0 ft / 0 m

DBBB

Details ICAO DBBB (COO)
Name CADJEHOUN
Region Benin
Timezone Africa/Porto-Novo (UTC+1.0)
Stats Elevation 19 ft / 6 m (AMSL)
Location 6.357227° 2.384353°
Runways 1
Magnetic Variation 2.522° W

METAR

DBBB 140200Z 24004KT 2200 DU NSC 26/25 Q1010 NOSIG

Decode

TAF

TAF TAF DBBB 132300Z 1400/1506 20008KT 2500 HZ NSC TEMPO 1404/1410 1400 BR

Decode

Destination Runways

ID Width Length Bearing (true) Bearing (mag) Surface Threshold Offset Overrun Length
06 148 ft / 45 m 7,887 ft / 2,404 m 52.94° 55.46° Asphalt 125 ft / 38 m 199 ft / 61 m
24 148 ft / 45 m 7,887 ft / 2,404 m 232.94° 235.46° Asphalt 0 ft / 0 m 416 ft / 127 m

Approach Navaids

Runway Type Ident Frequency Range Bearing (true) Bearing (mag) Slope Elevation
24 Localiser ICN 109.50 MHz 18 nm / 33 km 232.72° 235.25° - 19 ft / 6 m (AMSL)
24 Glidescope ICN 109.50 MHz 10 nm / 19 km 232.94° 235.46° 3.00° 19 ft / 6 m (AMSL)
24 DME ICN 109.50 MHz 18 nm / 33 km - - - 19 ft / 6 m (AMSL)